createdAt,value
2022-11-23T00:01:53.980Z,99368.41
2022-11-23T00:06:56.927Z,99379.41
2022-11-23T00:11:59.863Z,99293.03
2022-11-23T00:17:04.731Z,99387.91
2022-11-23T00:22:07.383Z,99385.16
2022-11-23T00:27:09.920Z,99381.81
2022-11-23T00:32:13.783Z,99392.00
2022-11-23T00:37:16.335Z,99398.78
2022-11-23T00:42:18.870Z,99408.38
2022-11-23T00:47:22.762Z,99403.84
2022-11-23T00:52:25.307Z,99397.00
2022-11-23T00:57:28.268Z,99396.41
2022-11-23T01:02:34.928Z,99397.81
2022-11-23T01:07:39.554Z,99358.72
2022-11-23T01:12:42.188Z,99414.47
2022-11-23T01:17:46.147Z,99424.44
2022-11-23T01:22:48.993Z,99420.25
2022-11-23T01:27:51.981Z,99439.91
2022-11-23T01:32:58.372Z,99438.72
2022-11-23T01:38:01.157Z,99433.41
2022-11-23T01:43:03.709Z,99443.59
2022-11-23T01:48:12.908Z,99439.53
2022-11-23T01:53:16.358Z,99442.63
2022-11-23T01:58:24.532Z,99413.19
2022-11-23T02:03:30.160Z,99432.69
2022-11-23T02:08:33.032Z,99442.09
2022-11-23T02:13:37.654Z,99451.13
2022-11-23T02:18:45.217Z,99460.00
2022-11-23T02:23:56.448Z,99471.75
2022-11-23T02:29:03.555Z,99469.97
2022-11-23T02:34:06.941Z,99465.13
2022-11-23T02:39:14.670Z,99463.56
2022-11-23T02:44:29.954Z,99461.19
2022-11-23T02:49:32.835Z,99468.13
2022-11-23T02:54:36.359Z,99472.94
2022-11-23T02:59:40.493Z,99474.50
2022-11-23T03:04:43.126Z,99475.06
2022-11-23T03:09:46.037Z,99481.66
2022-11-23T03:14:50.038Z,99490.44
2022-11-23T03:19:53.615Z,99478.91
2022-11-23T03:24:56.319Z,99410.97
2022-11-23T03:30:00.449Z,99491.88
2022-11-23T03:35:07.716Z,99486.59
2022-11-23T03:40:15.529Z,99490.91
2022-11-23T03:45:39.465Z,99492.22
2022-11-23T03:50:42.555Z,99498.38
2022-11-23T03:55:46.604Z,99477.34
2022-11-23T04:00:52.122Z,99500.66
2022-11-23T04:05:54.853Z,99487.19
2022-11-23T04:11:15.965Z,99491.66
2022-11-23T04:16:24.193Z,99484.94
2022-11-23T04:21:26.821Z,99487.56
2022-11-23T04:26:29.508Z,99499.09
2022-11-23T04:31:33.575Z,99468.56
2022-11-23T04:36:46.394Z,99502.22
2022-11-23T04:41:49.745Z,99499.34
2022-11-23T04:46:54.270Z,99491.59
2022-11-23T04:51:57.462Z,99507.97
2022-11-23T04:57:06.605Z,99504.75
2022-11-23T05:02:11.851Z,99508.09
2022-11-23T05:07:26.158Z,99504.41
2022-11-23T05:12:33.226Z,99487.47
2022-11-23T05:17:38.327Z,99503.31
2022-11-23T05:22:45.548Z,99492.75
2022-11-23T05:27:51.951Z,99492.59
2022-11-23T05:33:00.666Z,99504.34
2022-11-23T05:38:04.894Z,99508.53
2022-11-23T05:43:08.923Z,99512.53
2022-11-23T05:48:13.159Z,99510.72
2022-11-23T05:53:28.270Z,99518.41
2022-11-23T05:58:37.742Z,99520.19
2022-11-23T06:03:41.890Z,99510.31
2022-11-23T06:08:49.127Z,99516.72
2022-11-23T06:13:52.943Z,99519.75
2022-11-23T06:18:57.016Z,99513.94
2022-11-23T06:23:59.783Z,99502.47
2022-11-23T06:29:06.059Z,99521.72
2022-11-23T06:34:11.091Z,99523.84
2022-11-23T06:39:13.991Z,99521.09
2022-11-23T06:44:17.033Z,99519.03
2022-11-23T06:49:21.700Z,99522.66
2022-11-23T06:54:42.048Z,99530.75
2022-11-23T06:59:45.612Z,99541.91
2022-11-23T07:04:53.211Z,99551.06
2022-11-23T07:09:57.641Z,99553.34
2022-11-23T07:15:15.450Z,99524.50
2022-11-23T07:20:21.335Z,99545.31
2022-11-23T07:25:24.132Z,99561.69
2022-11-23T07:30:29.636Z,99491.16
2022-11-23T07:35:36.623Z,99557.56
2022-11-23T07:40:40.646Z,99552.66
2022-11-23T07:45:51.926Z,99575.78
2022-11-23T07:50:56.196Z,99579.66
2022-11-23T07:55:59.079Z,99578.84
2022-11-23T08:01:01.639Z,99578.34
2022-11-23T08:06:10.662Z,99586.03
2022-11-23T08:11:17.018Z,99592.88
2022-11-23T08:16:19.962Z,99590.44
2022-11-23T08:21:24.930Z,99597.41
2022-11-23T08:26:27.657Z,99600.13
2022-11-23T08:31:30.259Z,99608.03
2022-11-23T08:36:34.145Z,99613.16
2022-11-23T08:41:43.166Z,99587.44
2022-11-23T08:46:45.685Z,99611.59
2022-11-23T08:51:50.349Z,99607.75
2022-11-23T08:56:53.137Z,99615.56
2022-11-23T09:01:56.174Z,99609.88
2022-11-23T09:07:00.180Z,99619.00
2022-11-23T09:12:03.085Z,99598.00
2022-11-23T09:17:05.849Z,99629.91
2022-11-23T09:22:09.726Z,99617.25
2022-11-23T09:27:12.982Z,99627.84
2022-11-23T09:32:15.559Z,99624.53
2022-11-23T09:37:19.489Z,99629.28
2022-11-23T09:42:42.021Z,99635.72
2022-11-23T09:48:01.491Z,99622.50
2022-11-23T09:53:13.483Z,99626.00
2022-11-23T09:58:18.288Z,99586.38
2022-11-23T10:03:20.839Z,99617.88
2022-11-23T10:08:37.142Z,99620.16
2022-11-23T10:13:45.717Z,99615.31
2022-11-23T10:18:58.995Z,99618.09
2022-11-23T10:24:14.433Z,99610.03
2022-11-23T10:29:21.254Z,99606.00
2022-11-23T10:34:36.537Z,99604.41
2022-11-23T10:39:40.406Z,99600.28
2022-11-23T10:44:46.908Z,99587.06
2022-11-23T10:49:58.879Z,99575.06
2022-11-23T10:55:09.100Z,99546.66
2022-11-23T11:00:17.032Z,99550.50
2022-11-23T11:10:59.603Z,99547.56
2022-11-23T11:16:04.430Z,99536.56
2022-11-23T11:21:09.072Z,99518.16
2022-11-23T11:26:21.236Z,99524.72
2022-11-23T11:31:34.912Z,99509.94
2022-11-23T11:36:44.225Z,99518.47
2022-11-23T11:41:52.393Z,99516.50
2022-11-23T11:47:01.661Z,99510.28
2022-11-23T11:52:09.227Z,99505.53
2022-11-23T11:57:20.333Z,99509.03
2022-11-23T12:02:25.811Z,99506.94
2022-11-23T12:07:33.071Z,99497.09
2022-11-23T12:12:38.550Z,99505.16
2022-11-23T12:17:55.515Z,99500.56
2022-11-23T12:23:09.174Z,99509.09
2022-11-23T12:28:32.979Z,99510.22
2022-11-23T12:33:57.904Z,99503.69
2022-11-23T12:39:13.055Z,99494.06
2022-11-23T12:44:48.897Z,99487.25
2022-11-23T12:49:58.379Z,99468.84
2022-11-23T12:55:19.250Z,99463.13
2022-11-23T13:00:23.870Z,99454.84
2022-11-23T13:06:00.292Z,99458.06
2022-11-23T13:11:16.555Z,99456.25
2022-11-23T13:16:34.252Z,99446.88
2022-11-23T13:21:41.243Z,99447.31
2022-11-23T13:26:43.807Z,99444.22
2022-11-23T13:31:46.418Z,99450.78
2022-11-23T13:37:15.803Z,99438.13
2022-11-23T13:42:19.684Z,99436.00
2022-11-23T13:47:22.440Z,99433.75
2022-11-23T13:52:30.131Z,99429.69
2022-11-23T13:57:33.316Z,99435.53
2022-11-23T14:02:35.970Z,99437.50
2022-11-23T14:07:46.122Z,99431.22
2022-11-23T14:12:52.973Z,99421.91
2022-11-23T14:18:27.588Z,99426.22
2022-11-23T14:23:51.236Z,99422.31
2022-11-23T14:29:16.428Z,99432.09
2022-11-23T14:34:26.273Z,99420.94
2022-11-23T14:39:55.191Z,99425.94
2022-11-23T14:45:03.790Z,99437.38
2022-11-23T14:50:07.071Z,99450.72
2022-11-23T14:55:20.653Z,99466.59
2022-11-23T15:00:33.676Z,99479.97
2022-11-23T15:05:38.904Z,99485.25
2022-11-23T15:10:46.917Z,99496.75
2022-11-23T15:15:53.074Z,99503.44
2022-11-23T15:20:56.268Z,99507.84
2022-11-23T15:26:03.925Z,99514.38
2022-11-23T15:31:26.030Z,99532.06
2022-11-23T15:36:31.556Z,99497.72
2022-11-23T15:41:37.637Z,99539.63
2022-11-23T15:46:40.726Z,99461.69
2022-11-23T15:51:45.275Z,99572.81
2022-11-23T15:56:51.156Z,99588.03
2022-11-23T16:01:54.475Z,99582.91
2022-11-23T16:06:57.287Z,99591.06
2022-11-23T16:12:01.840Z,99607.16
2022-11-23T16:17:07.043Z,99627.72
2022-11-23T16:22:21.428Z,99622.03
2022-11-23T16:27:26.367Z,99633.97
2022-11-23T16:32:30.983Z,99639.84
2022-11-23T16:37:33.527Z,99638.63
2022-11-23T16:42:37.624Z,99637.47
2022-11-23T16:47:54.471Z,99573.41
2022-11-23T16:52:57.377Z,99643.22
2022-11-23T16:58:01.924Z,99607.25
2022-11-23T17:03:05.409Z,99640.81
2022-11-23T17:08:10.864Z,99591.63
2022-11-23T17:13:22.857Z,99636.38
2022-11-23T17:18:25.694Z,99649.94
2022-11-23T17:23:28.259Z,99638.06
2022-11-23T17:28:32.151Z,99671.53
2022-11-23T17:33:34.665Z,99695.78
2022-11-23T17:38:38.456Z,99671.75
2022-11-23T17:43:42.431Z,99704.91
2022-11-23T17:48:45.335Z,99696.47
2022-11-23T17:53:48.326Z,99693.84
2022-11-23T17:58:52.959Z,99700.06
2022-11-23T18:03:56.268Z,99725.41
2022-11-23T18:08:59.542Z,99722.16
2022-11-23T18:14:04.297Z,99731.75
2022-11-23T18:19:07.081Z,99731.72
2022-11-23T18:24:10.038Z,99734.72
2022-11-23T18:29:17.097Z,99736.75
2022-11-23T18:34:20.366Z,99736.88
2022-11-23T18:39:22.980Z,99750.22
2022-11-23T18:44:26.899Z,99766.28
2022-11-23T18:49:29.446Z,99758.75
2022-11-23T18:54:32.067Z,99775.44
2022-11-23T18:59:56.820Z,99791.25
2022-11-23T19:04:58.740Z,99806.13
2022-11-23T19:10:01.269Z,99804.31
2022-11-23T19:15:07.687Z,99808.53
2022-11-23T19:20:10.858Z,99800.97
2022-11-23T19:25:13.435Z,99814.06
2022-11-23T19:30:17.638Z,99816.91
2022-11-23T19:35:20.329Z,99819.75
2022-11-23T19:40:22.914Z,99838.94
2022-11-23T19:45:26.968Z,99860.19
2022-11-23T19:50:29.932Z,99863.69
2022-11-23T19:55:32.507Z,99873.13
2022-11-23T20:00:36.851Z,99863.75
2022-11-23T20:05:39.797Z,99890.72
2022-11-23T20:10:42.450Z,99880.97
2022-11-23T20:15:48.351Z,99887.97
2022-11-23T20:20:50.875Z,99910.22
2022-11-23T20:25:56.740Z,99895.88
2022-11-23T20:31:04.994Z,99890.94
2022-11-23T20:36:09.315Z,99910.16
2022-11-23T20:41:13.765Z,99910.63
2022-11-23T20:46:32.135Z,99917.41
2022-11-23T20:51:40.553Z,99917.03
2022-11-23T20:56:43.131Z,99923.53
2022-11-23T21:01:47.058Z,99919.81
2022-11-23T21:06:50.431Z,99938.19
2022-11-23T21:12:10.635Z,99931.88
2022-11-23T21:17:14.877Z,99949.47
2022-11-23T21:22:18.597Z,99955.28
2022-11-23T21:27:23.343Z,99963.94
2022-11-23T21:32:28.308Z,99957.53
2022-11-23T21:37:31.646Z,99962.03
2022-11-23T21:42:34.213Z,99962.97
2022-11-23T21:47:38.181Z,99983.66
2022-11-23T21:52:40.867Z,99981.66
2022-11-23T21:57:44.080Z,99984.59
2022-11-23T22:02:48.307Z,99986.09
2022-11-23T22:08:13.633Z,99990.19
2022-11-23T22:13:13.383Z,99998.19
2022-11-23T22:18:17.226Z,99992.41
2022-11-23T22:23:19.750Z,100023.72
2022-11-23T22:28:22.271Z,100021.59
2022-11-23T22:33:26.166Z,100025.28
2022-11-23T22:38:32.098Z,99994.19
2022-11-23T22:43:34.851Z,100032.47
2022-11-23T22:48:40.159Z,100040.16
2022-11-23T22:53:44.774Z,100051.66
2022-11-23T22:58:48.767Z,100051.13
2022-11-23T23:03:55.969Z,100048.59
2022-11-23T23:09:01.126Z,100064.63
2022-11-23T23:14:04.722Z,100074.84
2022-11-23T23:19:09.347Z,100075.38
2022-11-23T23:24:12.076Z,100087.19
2022-11-23T23:29:14.661Z,99996.09
2022-11-23T23:34:18.678Z,100094.31
2022-11-23T23:39:21.215Z,100100.38
2022-11-23T23:44:23.705Z,100105.50
2022-11-23T23:49:31.261Z,100105.84
2022-11-23T23:54:34.135Z,100082.13
2022-11-23T23:59:36.936Z,100115.88
